SGEN/ENO METAR and TAF weather

Enter ICAO airport designator
Station Type Date Time Source
SGEN METAR 2021/09/23 21:00 UTC NOAA

SGEN 232100Z 27004KT 9999 FEW030 BKN060 21/16 Q1017


Station Type Date Time Source
SGEN Decoded METAR 2021/09/23 21:00 UTC NOAA

Encarnacion, Paraguay (SGEN) 27-19S 055-50W 91M
Sep 23, 2021 - 05:00 PM EDT / 2021.09.23 2100 UTC
Wind: from the W (270 degrees) at 5 MPH (4 KT):0
Visibility: greater than 7 mile(s):0
Sky conditions: mostly cloudy
Temperature: 69 F (21 C)
Dew Point: 60 F (16 C)
Relative Humidity: 73%
Pressure (altimeter): 30.03 in. Hg (1017 hPa)
ob: SGEN 232100Z 27004KT 9999 FEW030 BKN060 21/16 Q1017
cycle: 21

Station Type Date Time Source
SGEN TAF 2021/09/24 06:00 UTC NOAA

TAF SGEN 240502Z 2406/2506 23006KT CAVOK TX24/2419Z TN12/2410Z
BECMG 2414/2417 9999 SCT033

Example: see airport list